sensor_id;sensor_type;location;lat;lon;timestamp;P1;durP1;ratioP1;P2;durP2;ratioP2
10565;SDS011;5331;48.148;16.326;2022-10-16T00:01:23;41.58;;;28.98;;
10565;SDS011;5331;48.148;16.326;2022-10-16T00:03:52;59.83;;;28.52;;
10565;SDS011;5331;48.148;16.326;2022-10-16T00:06:19;44.53;;;29.67;;
10565;SDS011;5331;48.148;16.326;2022-10-16T00:08:48;40.85;;;28.65;;
10565;SDS011;5331;48.148;16.326;2022-10-16T00:11:16;43.80;;;30.60;;
10565;SDS011;5331;48.148;16.326;2022-10-16T00:13:47;49.38;;;30.13;;
10565;SDS011;5331;48.148;16.326;2022-10-16T00:16:15;81.57;;;33.55;;
10565;SDS011;5331;48.148;16.326;2022-10-16T00:18:43;120.88;;;35.83;;
10565;SDS011;5331;48.148;16.326;2022-10-16T00:21:12;48.42;;;33.03;;
10565;SDS011;5331;48.148;16.326;2022-10-16T00:23:40;80.30;;;34.40;;
10565;SDS011;5331;48.148;16.326;2022-10-16T00:26:08;59.78;;;32.53;;
10565;SDS011;5331;48.148;16.326;2022-10-16T00:28:37;54.72;;;31.38;;
10565;SDS011;5331;48.148;16.326;2022-10-16T00:31:06;69.13;;;35.65;;
10565;SDS011;5331;48.148;16.326;2022-10-16T00:33:35;64.45;;;35.22;;
10565;SDS011;5331;48.148;16.326;2022-10-16T00:36:03;49.58;;;33.22;;
10565;SDS011;5331;48.148;16.326;2022-10-16T00:38:31;51.85;;;31.13;;
10565;SDS011;5331;48.148;16.326;2022-10-16T00:40:58;97.47;;;36.92;;
10565;SDS011;5331;48.148;16.326;2022-10-16T00:43:32;45.25;;;33.45;;
10565;SDS011;5331;48.148;16.326;2022-10-16T00:46:02;57.33;;;34.03;;
10565;SDS011;5331;48.148;16.326;2022-10-16T00:48:32;45.35;;;34.50;;
10565;SDS011;5331;48.148;16.326;2022-10-16T00:50:59;46.53;;;32.92;;
10565;SDS011;5331;48.148;16.326;2022-10-16T00:53:26;54.63;;;33.45;;
10565;SDS011;5331;48.148;16.326;2022-10-16T00:55:53;40.30;;;31.15;;
10565;SDS011;5331;48.148;16.326;2022-10-16T00:58:21;42.45;;;32.40;;
10565;SDS011;5331;48.148;16.326;2022-10-16T01:00:48;36.47;;;29.63;;
10565;SDS011;5331;48.148;16.326;2022-10-16T01:03:22;33.05;;;28.50;;
10565;SDS011;5331;48.148;16.326;2022-10-16T01:05:54;36.72;;;30.83;;
10565;SDS011;5331;48.148;16.326;2022-10-16T01:08:31;34.38;;;29.33;;
10565;SDS011;5331;48.148;16.326;2022-10-16T01:11:04;38.20;;;31.08;;
10565;SDS011;5331;48.148;16.326;2022-10-16T01:13:38;35.47;;;30.17;;
10565;SDS011;5331;48.148;16.326;2022-10-16T01:16:10;64.60;;;34.38;;
10565;SDS011;5331;48.148;16.326;2022-10-16T01:18:43;45.90;;;29.90;;
10565;SDS011;5331;48.148;16.326;2022-10-16T01:21:13;34.15;;;28.23;;
10565;SDS011;5331;48.148;16.326;2022-10-16T01:23:45;44.13;;;31.92;;
10565;SDS011;5331;48.148;16.326;2022-10-16T01:26:20;40.38;;;31.35;;
10565;SDS011;5331;48.148;16.326;2022-10-16T01:29:00;47.55;;;33.90;;
10565;SDS011;5331;48.148;16.326;2022-10-16T01:31:34;44.00;;;30.02;;
10565;SDS011;5331;48.148;16.326;2022-10-16T01:34:06;38.53;;;30.38;;
10565;SDS011;5331;48.148;16.326;2022-10-16T01:36:38;39.05;;;29.63;;
10565;SDS011;5331;48.148;16.326;2022-10-16T01:39:09;43.22;;;31.42;;
10565;SDS011;5331;48.148;16.326;2022-10-16T01:41:38;55.22;;;31.67;;
10565;SDS011;5331;48.148;16.326;2022-10-16T01:44:11;42.83;;;30.23;;
10565;SDS011;5331;48.148;16.326;2022-10-16T01:46:43;58.28;;;33.17;;
10565;SDS011;5331;48.148;16.326;2022-10-16T01:49:14;56.83;;;34.03;;
10565;SDS011;5331;48.148;16.326;2022-10-16T01:51:42;45.40;;;32.03;;
10565;SDS011;5331;48.148;16.326;2022-10-16T01:54:11;44.50;;;31.17;;
10565;SDS011;5331;48.148;16.326;2022-10-16T01:56:42;43.15;;;31.55;;
10565;SDS011;5331;48.148;16.326;2022-10-16T01:59:13;51.72;;;33.40;;
10565;SDS011;5331;48.148;16.326;2022-10-16T02:01:44;50.42;;;32.38;;
10565;SDS011;5331;48.148;16.326;2022-10-16T02:04:17;55.58;;;34.38;;
10565;SDS011;5331;48.148;16.326;2022-10-16T02:06:47;40.78;;;30.92;;
10565;SDS011;5331;48.148;16.326;2022-10-16T02:09:14;38.70;;;30.27;;
10565;SDS011;5331;48.148;16.326;2022-10-16T02:11:42;44.45;;;30.38;;
10565;SDS011;5331;48.148;16.326;2022-10-16T02:14:09;44.08;;;32.10;;
10565;SDS011;5331;48.148;16.326;2022-10-16T02:16:38;58.25;;;33.35;;
10565;SDS011;5331;48.148;16.326;2022-10-16T02:19:07;52.40;;;31.27;;
10565;SDS011;5331;48.148;16.326;2022-10-16T02:21:37;39.08;;;30.50;;
10565;SDS011;5331;48.148;16.326;2022-10-16T02:24:08;43.00;;;30.15;;
10565;SDS011;5331;48.148;16.326;2022-10-16T02:26:40;64.95;;;32.30;;
10565;SDS011;5331;48.148;16.326;2022-10-16T02:29:13;33.33;;;28.30;;
10565;SDS011;5331;48.148;16.326;2022-10-16T02:31:47;47.97;;;31.20;;
10565;SDS011;5331;48.148;16.326;2022-10-16T02:34:18;39.70;;;29.83;;
10565;SDS011;5331;48.148;16.326;2022-10-16T02:36:47;46.13;;;29.85;;
10565;SDS011;5331;48.148;16.326;2022-10-16T02:39:16;31.92;;;27.75;;
10565;SDS011;5331;48.148;16.326;2022-10-16T02:41:44;35.25;;;28.70;;
10565;SDS011;5331;48.148;16.326;2022-10-16T02:44:11;33.15;;;27.52;;
10565;SDS011;5331;48.148;16.326;2022-10-16T02:46:38;31.58;;;27.98;;
10565;SDS011;5331;48.148;16.326;2022-10-16T02:49:06;30.17;;;26.88;;
10565;SDS011;5331;48.148;16.326;2022-10-16T02:51:33;37.85;;;28.80;;
10565;SDS011;5331;48.148;16.326;2022-10-16T02:54:01;35.70;;;29.27;;
10565;SDS011;5331;48.148;16.326;2022-10-16T02:56:28;30.70;;;26.63;;
10565;SDS011;5331;48.148;16.326;2022-10-16T02:58:55;33.35;;;28.67;;
10565;SDS011;5331;48.148;16.326;2022-10-16T03:01:23;44.92;;;30.17;;
10565;SDS011;5331;48.148;16.326;2022-10-16T03:03:50;30.45;;;27.17;;
10565;SDS011;5331;48.148;16.326;2022-10-16T03:06:18;37.15;;;30.02;;
10565;SDS011;5331;48.148;16.326;2022-10-16T03:08:45;32.30;;;28.15;;
10565;SDS011;5331;48.148;16.326;2022-10-16T03:11:12;29.95;;;25.20;;
10565;SDS011;5331;48.148;16.326;2022-10-16T03:13:39;68.43;;;29.98;;
10565;SDS011;5331;48.148;16.326;2022-10-16T03:16:06;35.47;;;28.83;;
10565;SDS011;5331;48.148;16.326;2022-10-16T03:18:33;38.53;;;29.38;;
10565;SDS011;5331;48.148;16.326;2022-10-16T03:20:59;32.40;;;27.30;;
10565;SDS011;5331;48.148;16.326;2022-10-16T03:23:28;31.85;;;27.50;;
10565;SDS011;5331;48.148;16.326;2022-10-16T03:25:55;37.25;;;28.50;;
10565;SDS011;5331;48.148;16.326;2022-10-16T03:28:22;48.17;;;29.08;;
10565;SDS011;5331;48.148;16.326;2022-10-16T03:30:49;29.75;;;26.33;;
10565;SDS011;5331;48.148;16.326;2022-10-16T03:33:16;33.13;;;27.80;;
10565;SDS011;5331;48.148;16.326;2022-10-16T03:35:43;35.67;;;26.90;;
10565;SDS011;5331;48.148;16.326;2022-10-16T03:38:18;30.50;;;26.65;;
10565;SDS011;5331;48.148;16.326;2022-10-16T03:40:46;35.08;;;26.55;;
10565;SDS011;5331;48.148;16.326;2022-10-16T03:43:13;35.58;;;27.85;;
10565;SDS011;5331;48.148;16.326;2022-10-16T03:45:40;41.45;;;29.30;;
10565;SDS011;5331;48.148;16.326;2022-10-16T03:48:07;32.92;;;27.85;;
10565;SDS011;5331;48.148;16.326;2022-10-16T03:50:34;34.65;;;29.45;;
10565;SDS011;5331;48.148;16.326;2022-10-16T03:53:01;32.70;;;28.73;;
10565;SDS011;5331;48.148;16.326;2022-10-16T03:55:28;31.90;;;27.50;;
10565;SDS011;5331;48.148;16.326;2022-10-16T03:57:56;34.47;;;27.40;;
10565;SDS011;5331;48.148;16.326;2022-10-16T04:00:23;40.53;;;30.10;;
10565;SDS011;5331;48.148;16.326;2022-10-16T04:02:50;35.20;;;27.70;;
10565;SDS011;5331;48.148;16.326;2022-10-16T04:05:17;35.67;;;28.92;;
10565;SDS011;5331;48.148;16.326;2022-10-16T04:07:44;34.60;;;27.17;;
10565;SDS011;5331;48.148;16.326;2022-10-16T04:10:11;28.83;;;25.13;;
10565;SDS011;5331;48.148;16.326;2022-10-16T04:12:38;67.53;;;30.65;;
10565;SDS011;5331;48.148;16.326;2022-10-16T04:15:07;37.15;;;26.45;;
10565;SDS011;5331;48.148;16.326;2022-10-16T04:17:35;39.80;;;26.20;;
10565;SDS011;5331;48.148;16.326;2022-10-16T04:20:02;44.08;;;26.48;;
10565;SDS011;5331;48.148;16.326;2022-10-16T04:22:29;35.90;;;26.48;;
10565;SDS011;5331;48.148;16.326;2022-10-16T04:24:56;43.40;;;28.42;;
10565;SDS011;5331;48.148;16.326;2022-10-16T04:27:23;28.63;;;24.33;;
10565;SDS011;5331;48.148;16.326;2022-10-16T04:29:50;28.95;;;25.83;;
10565;SDS011;5331;48.148;16.326;2022-10-16T04:32:18;29.38;;;25.05;;
10565;SDS011;5331;48.148;16.326;2022-10-16T04:34:46;31.63;;;26.60;;
10565;SDS011;5331;48.148;16.326;2022-10-16T04:37:13;43.33;;;27.65;;
10565;SDS011;5331;48.148;16.326;2022-10-16T04:39:40;32.28;;;27.30;;
10565;SDS011;5331;48.148;16.326;2022-10-16T04:42:07;29.05;;;24.75;;
10565;SDS011;5331;48.148;16.326;2022-10-16T04:44:34;28.70;;;24.60;;
10565;SDS011;5331;48.148;16.326;2022-10-16T04:47:01;26.65;;;23.77;;
10565;SDS011;5331;48.148;16.326;2022-10-16T04:49:29;29.50;;;25.13;;
10565;SDS011;5331;48.148;16.326;2022-10-16T04:51:56;39.22;;;26.77;;
10565;SDS011;5331;48.148;16.326;2022-10-16T04:54:23;35.75;;;26.73;;
10565;SDS011;5331;48.148;16.326;2022-10-16T04:56:50;28.40;;;24.58;;
10565;SDS011;5331;48.148;16.326;2022-10-16T04:59:17;30.27;;;25.13;;
10565;SDS011;5331;48.148;16.326;2022-10-16T05:01:45;36.03;;;25.02;;
10565;SDS011;5331;48.148;16.326;2022-10-16T05:04:13;29.52;;;26.23;;
10565;SDS011;5331;48.148;16.326;2022-10-16T05:06:41;63.92;;;27.80;;
10565;SDS011;5331;48.148;16.326;2022-10-16T05:09:09;31.73;;;24.98;;
10565;SDS011;5331;48.148;16.326;2022-10-16T05:11:36;26.83;;;23.92;;
10565;SDS011;5331;48.148;16.326;2022-10-16T05:14:03;32.17;;;25.25;;
10565;SDS011;5331;48.148;16.326;2022-10-16T05:16:30;37.50;;;25.05;;
10565;SDS011;5331;48.148;16.326;2022-10-16T05:18:57;27.08;;;23.08;;
10565;SDS011;5331;48.148;16.326;2022-10-16T05:21:24;38.85;;;25.88;;
10565;SDS011;5331;48.148;16.326;2022-10-16T05:23:53;36.30;;;22.88;;
10565;SDS011;5331;48.148;16.326;2022-10-16T05:26:20;36.10;;;23.60;;
10565;SDS011;5331;48.148;16.326;2022-10-16T05:28:48;56.83;;;23.30;;
10565;SDS011;5331;48.148;16.326;2022-10-16T05:31:16;62.05;;;24.08;;
10565;SDS011;5331;48.148;16.326;2022-10-16T05:33:43;49.60;;;24.52;;
10565;SDS011;5331;48.148;16.326;2022-10-16T05:36:10;24.88;;;22.05;;
10565;SDS011;5331;48.148;16.326;2022-10-16T05:38:38;28.30;;;22.83;;
10565;SDS011;5331;48.148;16.326;2022-10-16T05:41:06;43.70;;;24.45;;
10565;SDS011;5331;48.148;16.326;2022-10-16T05:43:33;56.70;;;25.65;;
10565;SDS011;5331;48.148;16.326;2022-10-16T05:46:00;28.80;;;23.35;;
10565;SDS011;5331;48.148;16.326;2022-10-16T05:48:29;37.55;;;24.83;;
10565;SDS011;5331;48.148;16.326;2022-10-16T05:50:58;25.95;;;22.13;;
10565;SDS011;5331;48.148;16.326;2022-10-16T05:53:26;24.65;;;21.88;;
10565;SDS011;5331;48.148;16.326;2022-10-16T05:55:53;26.65;;;23.15;;
10565;SDS011;5331;48.148;16.326;2022-10-16T05:58:22;25.00;;;22.15;;
10565;SDS011;5331;48.148;16.326;2022-10-16T06:00:53;24.55;;;21.90;;
10565;SDS011;5331;48.148;16.326;2022-10-16T06:03:21;27.45;;;22.50;;
10565;SDS011;5331;48.148;16.326;2022-10-16T06:05:48;27.65;;;22.33;;
10565;SDS011;5331;48.148;16.326;2022-10-16T06:08:16;25.70;;;22.63;;
10565;SDS011;5331;48.148;16.326;2022-10-16T06:10:43;28.27;;;22.90;;
10565;SDS011;5331;48.148;16.326;2022-10-16T06:13:11;31.50;;;24.38;;
10565;SDS011;5331;48.148;16.326;2022-10-16T06:15:40;29.98;;;22.52;;
10565;SDS011;5331;48.148;16.326;2022-10-16T06:18:08;26.45;;;22.35;;
10565;SDS011;5331;48.148;16.326;2022-10-16T06:20:36;39.03;;;26.20;;
10565;SDS011;5331;48.148;16.326;2022-10-16T06:23:03;31.42;;;25.48;;
10565;SDS011;5331;48.148;16.326;2022-10-16T06:25:30;30.70;;;25.05;;
10565;SDS011;5331;48.148;16.326;2022-10-16T06:27:57;32.33;;;25.58;;
10565;SDS011;5331;48.148;16.326;2022-10-16T06:30:24;30.25;;;24.17;;
10565;SDS011;5331;48.148;16.326;2022-10-16T06:32:53;37.83;;;26.42;;
10565;SDS011;5331;48.148;16.326;2022-10-16T06:35:20;38.20;;;27.50;;
10565;SDS011;5331;48.148;16.326;2022-10-16T06:37:47;48.72;;;30.20;;
10565;SDS011;5331;48.148;16.326;2022-10-16T06:40:14;50.58;;;31.05;;
10565;SDS011;5331;48.148;16.326;2022-10-16T06:42:41;42.20;;;28.95;;
10565;SDS011;5331;48.148;16.326;2022-10-16T06:45:08;38.30;;;28.83;;
10565;SDS011;5331;48.148;16.326;2022-10-16T06:47:35;44.60;;;30.58;;
10565;SDS011;5331;48.148;16.326;2022-10-16T06:50:04;46.05;;;31.08;;
10565;SDS011;5331;48.148;16.326;2022-10-16T06:52:33;83.40;;;34.28;;
10565;SDS011;5331;48.148;16.326;2022-10-16T06:55:00;58.60;;;34.08;;
10565;SDS011;5331;48.148;16.326;2022-10-16T06:57:27;49.72;;;33.28;;
10565;SDS011;5331;48.148;16.326;2022-10-16T06:59:55;69.20;;;34.67;;
10565;SDS011;5331;48.148;16.326;2022-10-16T07:02:21;45.25;;;32.35;;
10565;SDS011;5331;48.148;16.326;2022-10-16T07:04:49;84.25;;;35.55;;
10565;SDS011;5331;48.148;16.326;2022-10-16T07:07:17;72.35;;;36.00;;
10565;SDS011;5331;48.148;16.326;2022-10-16T07:09:44;55.42;;;36.00;;
10565;SDS011;5331;48.148;16.326;2022-10-16T07:12:11;68.60;;;36.10;;
10565;SDS011;5331;48.148;16.326;2022-10-16T07:14:38;48.80;;;34.78;;
10565;SDS011;5331;48.148;16.326;2022-10-16T07:17:05;59.83;;;35.85;;
10565;SDS011;5331;48.148;16.326;2022-10-16T07:19:32;75.05;;;37.13;;
10565;SDS011;5331;48.148;16.326;2022-10-16T07:21:59;75.25;;;36.33;;
10565;SDS011;5331;48.148;16.326;2022-10-16T07:24:27;60.83;;;36.33;;
10565;SDS011;5331;48.148;16.326;2022-10-16T07:26:56;58.10;;;37.72;;
10565;SDS011;5331;48.148;16.326;2022-10-16T07:29:23;58.90;;;38.00;;
10565;SDS011;5331;48.148;16.326;2022-10-16T07:31:50;52.38;;;36.33;;
10565;SDS011;5331;48.148;16.326;2022-10-16T07:34:18;59.10;;;39.30;;
10565;SDS011;5331;48.148;16.326;2022-10-16T07:36:47;62.05;;;39.10;;
10565;SDS011;5331;48.148;16.326;2022-10-16T07:39:14;58.03;;;37.75;;
10565;SDS011;5331;48.148;16.326;2022-10-16T07:41:43;68.03;;;38.13;;
10565;SDS011;5331;48.148;16.326;2022-10-16T07:44:10;62.20;;;40.08;;
10565;SDS011;5331;48.148;16.326;2022-10-16T07:46:37;58.85;;;39.50;;
10565;SDS011;5331;48.148;16.326;2022-10-16T07:49:04;56.90;;;38.38;;
10565;SDS011;5331;48.148;16.326;2022-10-16T07:51:31;59.88;;;39.72;;
10565;SDS011;5331;48.148;16.326;2022-10-16T07:53:58;56.90;;;38.53;;
10565;SDS011;5331;48.148;16.326;2022-10-16T07:56:25;61.15;;;38.45;;
10565;SDS011;5331;48.148;16.326;2022-10-16T07:58:53;62.63;;;40.00;;
10565;SDS011;5331;48.148;16.326;2022-10-16T08:01:21;56.90;;;37.42;;
10565;SDS011;5331;48.148;16.326;2022-10-16T08:03:49;59.60;;;37.78;;
10565;SDS011;5331;48.148;16.326;2022-10-16T08:06:18;61.20;;;38.55;;
10565;SDS011;5331;48.148;16.326;2022-10-16T08:08:47;59.90;;;39.25;;
10565;SDS011;5331;48.148;16.326;2022-10-16T08:11:14;67.88;;;40.78;;
10565;SDS011;5331;48.148;16.326;2022-10-16T08:13:41;65.40;;;40.70;;
10565;SDS011;5331;48.148;16.326;2022-10-16T08:16:09;63.28;;;39.47;;
10565;SDS011;5331;48.148;16.326;2022-10-16T08:18:36;55.30;;;37.13;;
10565;SDS011;5331;48.148;16.326;2022-10-16T08:21:04;54.20;;;36.05;;
10565;SDS011;5331;48.148;16.326;2022-10-16T08:23:32;50.63;;;35.30;;
10565;SDS011;5331;48.148;16.326;2022-10-16T08:26:02;53.17;;;37.17;;
10565;SDS011;5331;48.148;16.326;2022-10-16T08:28:31;48.42;;;34.97;;
10565;SDS011;5331;48.148;16.326;2022-10-16T08:31:04;47.40;;;34.33;;
10565;SDS011;5331;48.148;16.326;2022-10-16T08:33:33;45.60;;;33.47;;
10565;SDS011;5331;48.148;16.326;2022-10-16T08:36:01;47.17;;;34.00;;
10565;SDS011;5331;48.148;16.326;2022-10-16T08:38:29;53.58;;;35.08;;
10565;SDS011;5331;48.148;16.326;2022-10-16T08:40:57;49.85;;;34.40;;
10565;SDS011;5331;48.148;16.326;2022-10-16T08:43:50;47.95;;;33.20;;
10565;SDS011;5331;48.148;16.326;2022-10-16T08:46:32;49.47;;;34.90;;
10565;SDS011;5331;48.148;16.326;2022-10-16T08:49:08;47.42;;;35.08;;
10565;SDS011;5331;48.148;16.326;2022-10-16T08:51:38;53.55;;;35.63;;
10565;SDS011;5331;48.148;16.326;2022-10-16T08:54:08;55.65;;;35.28;;
10565;SDS011;5331;48.148;16.326;2022-10-16T08:56:46;51.40;;;35.97;;
10565;SDS011;5331;48.148;16.326;2022-10-16T08:59:14;49.53;;;35.80;;
10565;SDS011;5331;48.148;16.326;2022-10-16T09:01:44;48.15;;;35.05;;
10565;SDS011;5331;48.148;16.326;2022-10-16T09:07:11;48.72;;;34.20;;
10565;SDS011;5331;48.148;16.326;2022-10-16T09:09:51;54.13;;;34.50;;
10565;SDS011;5331;48.148;16.326;2022-10-16T09:12:28;50.15;;;34.38;;
10565;SDS011;5331;48.148;16.326;2022-10-16T09:15:07;61.40;;;39.85;;
10565;SDS011;5331;48.148;16.326;2022-10-16T09:17:47;66.45;;;40.83;;
10565;SDS011;5331;48.148;16.326;2022-10-16T09:20:31;63.63;;;40.50;;
10565;SDS011;5331;48.148;16.326;2022-10-16T09:25:51;52.03;;;36.35;;
10565;SDS011;5331;48.148;16.326;2022-10-16T09:28:21;67.78;;;42.55;;
10565;SDS011;5331;48.148;16.326;2022-10-16T09:30:48;65.97;;;41.08;;
10565;SDS011;5331;48.148;16.326;2022-10-16T09:33:16;62.00;;;40.25;;
10565;SDS011;5331;48.148;16.326;2022-10-16T09:35:47;57.80;;;37.25;;
10565;SDS011;5331;48.148;16.326;2022-10-16T09:38:23;76.72;;;45.05;;
10565;SDS011;5331;48.148;16.326;2022-10-16T09:40:53;69.88;;;43.55;;
10565;SDS011;5331;48.148;16.326;2022-10-16T09:43:21;71.13;;;43.08;;
10565;SDS011;5331;48.148;16.326;2022-10-16T09:45:54;59.28;;;39.90;;
10565;SDS011;5331;48.148;16.326;2022-10-16T09:48:25;53.70;;;37.05;;
10565;SDS011;5331;48.148;16.326;2022-10-16T09:50:59;56.25;;;37.70;;
10565;SDS011;5331;48.148;16.326;2022-10-16T09:53:37;62.20;;;38.67;;
10565;SDS011;5331;48.148;16.326;2022-10-16T09:56:05;58.38;;;37.67;;
10565;SDS011;5331;48.148;16.326;2022-10-16T09:58:32;59.42;;;39.17;;
10565;SDS011;5331;48.148;16.326;2022-10-16T10:00:59;59.95;;;38.88;;
10565;SDS011;5331;48.148;16.326;2022-10-16T10:03:32;59.30;;;40.50;;
10565;SDS011;5331;48.148;16.326;2022-10-16T10:06:05;60.40;;;40.15;;
10565;SDS011;5331;48.148;16.326;2022-10-16T10:08:53;54.78;;;38.65;;
10565;SDS011;5331;48.148;16.326;2022-10-16T10:11:36;58.50;;;40.58;;
10565;SDS011;5331;48.148;16.326;2022-10-16T10:14:28;57.47;;;38.53;;
10565;SDS011;5331;48.148;16.326;2022-10-16T10:17:11;54.03;;;37.13;;
10565;SDS011;5331;48.148;16.326;2022-10-16T10:19:42;48.55;;;35.33;;
10565;SDS011;5331;48.148;16.326;2022-10-16T10:22:19;51.95;;;36.13;;
10565;SDS011;5331;48.148;16.326;2022-10-16T10:25:12;47.00;;;33.72;;
10565;SDS011;5331;48.148;16.326;2022-10-16T10:27:59;47.53;;;34.65;;
10565;SDS011;5331;48.148;16.326;2022-10-16T10:30:38;47.95;;;35.13;;
10565;SDS011;5331;48.148;16.326;2022-10-16T10:33:16;48.70;;;35.53;;
10565;SDS011;5331;48.148;16.326;2022-10-16T10:35:51;54.97;;;37.38;;
10565;SDS011;5331;48.148;16.326;2022-10-16T10:38:31;51.08;;;35.92;;
10565;SDS011;5331;48.148;16.326;2022-10-16T10:41:08;45.03;;;34.03;;
10565;SDS011;5331;48.148;16.326;2022-10-16T10:43:53;46.63;;;34.95;;
10565;SDS011;5331;48.148;16.326;2022-10-16T10:46:30;47.25;;;34.17;;
10565;SDS011;5331;48.148;16.326;2022-10-16T10:51:53;49.78;;;35.70;;
10565;SDS011;5331;48.148;16.326;2022-10-16T10:54:32;52.92;;;37.05;;
10565;SDS011;5331;48.148;16.326;2022-10-16T10:57:08;57.47;;;39.85;;
10565;SDS011;5331;48.148;16.326;2022-10-16T11:02:40;52.85;;;35.80;;
10565;SDS011;5331;48.148;16.326;2022-10-16T11:08:11;52.97;;;35.33;;
10565;SDS011;5331;48.148;16.326;2022-10-16T11:10:49;53.78;;;36.45;;
10565;SDS011;5331;48.148;16.326;2022-10-16T11:13:23;55.50;;;36.22;;
10565;SDS011;5331;48.148;16.326;2022-10-16T11:15:57;51.22;;;35.50;;
10565;SDS011;5331;48.148;16.326;2022-10-16T11:18:27;45.58;;;33.78;;
10565;SDS011;5331;48.148;16.326;2022-10-16T11:21:01;51.38;;;35.90;;
10565;SDS011;5331;48.148;16.326;2022-10-16T11:23:31;50.28;;;34.92;;
10565;SDS011;5331;48.148;16.326;2022-10-16T11:26:08;52.17;;;36.58;;
10565;SDS011;5331;48.148;16.326;2022-10-16T11:28:42;47.95;;;35.03;;
10565;SDS011;5331;48.148;16.326;2022-10-16T11:31:13;52.67;;;36.38;;
10565;SDS011;5331;48.148;16.326;2022-10-16T11:33:46;48.75;;;35.05;;
10565;SDS011;5331;48.148;16.326;2022-10-16T11:36:22;49.22;;;36.53;;
10565;SDS011;5331;48.148;16.326;2022-10-16T11:38:58;49.15;;;35.65;;
10565;SDS011;5331;48.148;16.326;2022-10-16T11:41:35;46.45;;;34.03;;
10565;SDS011;5331;48.148;16.326;2022-10-16T11:44:18;46.63;;;34.78;;
10565;SDS011;5331;48.148;16.326;2022-10-16T11:46:58;45.50;;;33.50;;
10565;SDS011;5331;48.148;16.326;2022-10-16T11:49:33;45.75;;;34.47;;
10565;SDS011;5331;48.148;16.326;2022-10-16T11:52:06;48.58;;;35.70;;
10565;SDS011;5331;48.148;16.326;2022-10-16T11:54:39;49.20;;;35.50;;
10565;SDS011;5331;48.148;16.326;2022-10-16T11:57:15;45.03;;;33.58;;
10565;SDS011;5331;48.148;16.326;2022-10-16T11:59:46;44.28;;;34.28;;
10565;SDS011;5331;48.148;16.326;2022-10-16T12:02:26;44.88;;;34.45;;
10565;SDS011;5331;48.148;16.326;2022-10-16T12:05:02;44.63;;;34.58;;
10565;SDS011;5331;48.148;16.326;2022-10-16T12:07:41;44.92;;;33.97;;
10565;SDS011;5331;48.148;16.326;2022-10-16T12:10:18;46.70;;;35.70;;
10565;SDS011;5331;48.148;16.326;2022-10-16T12:12:49;42.85;;;33.05;;
10565;SDS011;5331;48.148;16.326;2022-10-16T12:15:20;39.92;;;32.38;;
10565;SDS011;5331;48.148;16.326;2022-10-16T12:17:50;42.67;;;33.42;;
10565;SDS011;5331;48.148;16.326;2022-10-16T12:20:27;44.22;;;34.03;;
10565;SDS011;5331;48.148;16.326;2022-10-16T12:22:58;41.75;;;32.75;;
10565;SDS011;5331;48.148;16.326;2022-10-16T12:25:28;42.33;;;33.20;;
10565;SDS011;5331;48.148;16.326;2022-10-16T12:28:05;40.80;;;32.47;;
10565;SDS011;5331;48.148;16.326;2022-10-16T12:30:51;37.30;;;30.88;;
10565;SDS011;5331;48.148;16.326;2022-10-16T12:33:21;38.95;;;31.90;;
10565;SDS011;5331;48.148;16.326;2022-10-16T12:35:51;40.88;;;33.15;;
10565;SDS011;5331;48.148;16.326;2022-10-16T12:38:19;39.75;;;31.67;;
10565;SDS011;5331;48.148;16.326;2022-10-16T12:40:54;40.75;;;33.30;;
10565;SDS011;5331;48.148;16.326;2022-10-16T12:43:27;38.83;;;31.55;;
10565;SDS011;5331;48.148;16.326;2022-10-16T12:46:21;40.65;;;33.70;;
10565;SDS011;5331;48.148;16.326;2022-10-16T12:49:05;39.13;;;31.95;;
10565;SDS011;5331;48.148;16.326;2022-10-16T12:51:46;40.08;;;32.85;;
10565;SDS011;5331;48.148;16.326;2022-10-16T12:54:13;40.92;;;32.75;;
10565;SDS011;5331;48.148;16.326;2022-10-16T12:56:46;41.63;;;34.58;;
10565;SDS011;5331;48.148;16.326;2022-10-16T12:59:24;38.80;;;31.60;;
10565;SDS011;5331;48.148;16.326;2022-10-16T13:05:20;38.58;;;30.05;;
10565;SDS011;5331;48.148;16.326;2022-10-16T13:07:55;40.15;;;32.28;;
10565;SDS011;5331;48.148;16.326;2022-10-16T13:10:31;38.20;;;31.65;;
10565;SDS011;5331;48.148;16.326;2022-10-16T13:13:12;42.00;;;33.53;;
10565;SDS011;5331;48.148;16.326;2022-10-16T13:16:00;39.28;;;32.45;;
10565;SDS011;5331;48.148;16.326;2022-10-16T13:18:38;41.13;;;33.08;;
10565;SDS011;5331;48.148;16.326;2022-10-16T13:21:16;40.47;;;33.45;;
10565;SDS011;5331;48.148;16.326;2022-10-16T13:23:51;36.85;;;31.02;;
10565;SDS011;5331;48.148;16.326;2022-10-16T13:26:28;39.65;;;32.83;;
10565;SDS011;5331;48.148;16.326;2022-10-16T13:29:11;42.15;;;33.05;;
10565;SDS011;5331;48.148;16.326;2022-10-16T13:31:41;41.05;;;34.25;;
10565;SDS011;5331;48.148;16.326;2022-10-16T13:34:11;40.47;;;33.60;;
10565;SDS011;5331;48.148;16.326;2022-10-16T13:36:45;43.22;;;34.78;;
10565;SDS011;5331;48.148;16.326;2022-10-16T13:39:15;44.40;;;36.55;;
10565;SDS011;5331;48.148;16.326;2022-10-16T13:41:57;42.47;;;34.33;;
10565;SDS011;5331;48.148;16.326;2022-10-16T13:44:27;42.65;;;33.80;;
10565;SDS011;5331;48.148;16.326;2022-10-16T13:47:01;44.45;;;34.83;;
10565;SDS011;5331;48.148;16.326;2022-10-16T13:49:28;37.03;;;32.20;;
10565;SDS011;5331;48.148;16.326;2022-10-16T13:51:56;40.55;;;32.70;;
10565;SDS011;5331;48.148;16.326;2022-10-16T13:54:24;40.70;;;34.88;;
10565;SDS011;5331;48.148;16.326;2022-10-16T13:56:53;41.85;;;34.78;;
10565;SDS011;5331;48.148;16.326;2022-10-16T13:59:24;45.60;;;36.33;;
10565;SDS011;5331;48.148;16.326;2022-10-16T14:01:53;42.88;;;34.40;;
10565;SDS011;5331;48.148;16.326;2022-10-16T14:04:25;43.35;;;35.72;;
10565;SDS011;5331;48.148;16.326;2022-10-16T14:06:55;43.33;;;34.83;;
10565;SDS011;5331;48.148;16.326;2022-10-16T14:09:23;47.35;;;33.65;;
10565;SDS011;5331;48.148;16.326;2022-10-16T14:11:52;48.15;;;36.78;;
10565;SDS011;5331;48.148;16.326;2022-10-16T14:14:22;37.30;;;32.08;;
10565;SDS011;5331;48.148;16.326;2022-10-16T14:16:49;43.58;;;34.10;;
10565;SDS011;5331;48.148;16.326;2022-10-16T14:19:18;40.22;;;34.55;;
10565;SDS011;5331;48.148;16.326;2022-10-16T14:21:49;41.58;;;33.38;;
10565;SDS011;5331;48.148;16.326;2022-10-16T14:24:27;40.33;;;31.52;;
10565;SDS011;5331;48.148;16.326;2022-10-16T14:26:58;41.55;;;33.95;;
10565;SDS011;5331;48.148;16.326;2022-10-16T14:29:26;36.88;;;31.45;;
10565;SDS011;5331;48.148;16.326;2022-10-16T14:31:57;40.05;;;32.85;;
10565;SDS011;5331;48.148;16.326;2022-10-16T14:34:26;41.42;;;33.78;;
10565;SDS011;5331;48.148;16.326;2022-10-16T14:36:58;41.17;;;33.47;;
10565;SDS011;5331;48.148;16.326;2022-10-16T14:39:29;39.60;;;33.83;;
10565;SDS011;5331;48.148;16.326;2022-10-16T14:41:57;37.47;;;32.33;;
10565;SDS011;5331;48.148;16.326;2022-10-16T14:44:27;40.78;;;33.05;;
10565;SDS011;5331;48.148;16.326;2022-10-16T14:46:57;40.13;;;31.25;;
10565;SDS011;5331;48.148;16.326;2022-10-16T14:49:32;37.40;;;30.15;;
10565;SDS011;5331;48.148;16.326;2022-10-16T14:52:01;37.38;;;32.58;;
10565;SDS011;5331;48.148;16.326;2022-10-16T14:54:28;40.40;;;32.95;;
10565;SDS011;5331;48.148;16.326;2022-10-16T14:56:55;40.53;;;34.05;;
10565;SDS011;5331;48.148;16.326;2022-10-16T14:59:24;40.85;;;32.60;;